| Date | Time | Temp. (oF) | Dew Point (oF) | Rel. Hum. (%) | Press. (in.) | Wind Dir. | Wind Speed (mph) | Hourly Rainfall (in.) |
|
|---|---|---|---|---|---|---|---|---|---|
| 1 | 06/11 | 00:00 | 68 | 58 | 72 | 29.98 | NE | 0 | 0.00 |
| 2 | 06/10 | 23:00 | 72 | 58 | 62 | 29.96 | NNE | 3 | 0.00 |
| 3 | 06/10 | 22:00 | 75 | 57 | 55 | 29.93 | NE | 8 | 0.00 |
| 4 | 06/10 | 21:00 | 77 | 57 | 52 | 29.88 | NW | 2 | 0.00 |
| 5 | 06/10 | 20:00 | 79 | 57 | 48 | 29.84 | N | 2 | 0.00 |
| 6 | 06/10 | 19:00 | 83 | 57 | 42 | 29.82 | NNW | 4 | 0.00 |
| 7 | 06/10 | 18:00 | 84 | 58 | 42 | 29.80 | NNE | 13 | 0.00 |
| 8 | 06/10 | 17:00 | 85 | 60 | 44 | 29.81 | NNW | 4 | 0.00 |
| 9 | 06/10 | 16:00 | 84 | 61 | 47 | 29.80 | W | 7 | 0.00 |
| 10 | 06/10 | 15:00 | 84 | 60 | 46 | 29.80 | WSW | 4 | 0.00 |
| 11 | 06/10 | 14:00 | 83 | 62 | 51 | 29.81 | NW | 3 | 0.00 |
| 12 | 06/10 | 13:00 | 81 | 66 | 61 | 29.82 | SW | 5 | 0.00 |
| 13 | 06/10 | 12:00 | 80 | 67 | 66 | 29.82 | WSW | 4 | 0.00 |
| 14 | 06/10 | 11:00 | 76 | 67 | 74 | 29.84 | NNW | 1 | 0.00 |
| 15 | 06/10 | 10:00 | 75 | 68 | 80 | 29.84 | N | 3 | 0.00 |
| 16 | 06/10 | 09:00 | 71 | 69 | 95 | 29.86 | NNW | 0 | 0.00 |
| 17 | 06/10 | 08:00 | 66 | 66 | 100 | 29.86 | NNW | 0 | 0.00 |
| 18 | 06/10 | 07:00 | 65 | 64 | 100 | 29.84 | WSW | 0 | 0.00 |
| 19 | 06/10 | 06:00 | 64 | 63 | 100 | 29.84 | SSW | 0 | 0.00 |
| 20 | 06/10 | 05:00 | 64 | 63 | 100 | 29.83 | NNW | 0 | 0.00 |
| 21 | 06/10 | 04:00 | 64 | 63 | 100 | 29.82 | NNW | 2 | 0.00 |
| 22 | 06/10 | 03:00 | 64 | 63 | 100 | 29.82 | WSW | 3 | 0.00 |
| 23 | 06/10 | 02:00 | 64 | 63 | 100 | 29.80 | WNW | 0 | 0.00 |
| 24 | 06/10 | 01:00 | 64 | 63 | 100 | 29.81 | N | 0 | 0.00 |